Time;durP1;ratioP1;P1;durP2;ratioP2;P2;SDS_P1;SDS_P2;PMS_P1;PMS_P2;Temp;Humidity;BMP_temperature;BMP_pressure;BME280_temperature;BME280_humidity;BME280_pressure;Samples;Min_cycle;Max_cycle;Signal;HPM_P1;HPM_P2
2022/11/29 00:02:26;;;;;;;0.25;0.00;;;;;;;5.71;100.00;101255.53;5218397;28;20043;-77
2022/11/29 00:04:57;;;;;;;0.10;0.00;;;;;;;5.71;100.00;101258.19;5224367;28;20586;-77
2022/11/29 00:07:28;;;;;;;0.38;0.10;;;;;;;5.72;100.00;101251.13;5223717;28;20044;-77
2022/11/29 00:09:59;;;;;;;0.50;0.13;;;;;;;5.72;100.00;101248.47;5230357;28;20045;-77
2022/11/29 00:12:31;;;;;;;0.10;0.00;;;;;;;5.70;100.00;101249.41;5224219;28;20032;-77
2022/11/29 00:15:02;;;;;;;0.10;0.00;;;;;;;5.70;100.00;101254.69;5223583;28;20060;-77
2022/11/29 00:17:34;;;;;;;0.65;0.10;;;;;;;5.70;100.00;101262.63;5226176;28;20037;-77
2022/11/29 00:20:09;;;;;;;0.22;0.00;;;;;;;5.70;100.00;101267.94;5224134;28;20044;-77
2022/11/29 00:22:40;;;;;;;;;;;;;;;5.70;100.00;101264.44;5222910;28;20434;-77
2022/11/29 00:25:11;;;;;;;0.05;0.00;;;;;;;5.69;100.00;101265.34;5224912;28;19913;-77
2022/11/29 00:27:43;;;;;;;0.38;0.10;;;;;;;5.67;100.00;101269.88;5225739;28;20510;-77
2022/11/29 00:30:14;;;;;;;0.22;0.10;;;;;;;5.67;100.00;101267.22;5222653;28;20060;-77
2022/11/29 00:32:45;;;;;;;0.05;0.00;;;;;;;5.67;100.00;101268.06;5239169;28;20088;-77
2022/11/29 00:35:17;;;;;;;0.10;0.00;;;;;;;5.68;100.00;101268.94;5223241;28;20115;-77
2022/11/29 00:37:48;;;;;;;0.00;0.00;;;;;;;5.69;100.00;101260.06;5227977;28;20029;-76
2022/11/29 00:40:19;;;;;;;0.50;0.00;;;;;;;5.67;100.00;101265.41;5222437;28;20550;-77
2022/11/29 00:42:51;;;;;;;0.00;0.00;;;;;;;5.68;100.00;101261.84;5223159;28;20037;-77
2022/11/29 00:45:22;;;;;;;0.00;0.00;;;;;;;5.69;100.00;101265.34;5219477;28;20116;-77
2022/11/29 00:47:53;;;;;;;0.10;0.00;;;;;;;5.68;100.00;101261.84;5223291;28;20071;-77
2022/11/29 00:50:24;;;;;;;0.45;0.10;;;;;;;5.68;100.00;101261.00;5223517;28;20033;-77
2022/11/29 00:52:56;;;;;;;0.00;0.00;;;;;;;5.68;100.00;101266.31;5225988;28;20037;-76
2022/11/29 00:55:27;;;;;;;0.30;0.00;;;;;;;5.66;100.00;101263.72;5224891;28;20060;-77
2022/11/29 00:57:58;;;;;;;0.17;0.10;;;;;;;5.65;100.00;101259.34;5226352;28;20044;-77
2022/11/29 01:00:29;;;;;;;0.15;0.00;;;;;;;5.65;100.00;101262.00;5226267;28;20371;-76
2022/11/29 01:03:01;;;;;;;0.20;0.00;;;;;;;5.66;100.00;101260.22;5225951;28;20029;-77
2022/11/29 01:05:32;;;;;;;0.10;0.00;;;;;;;5.64;100.00;101262.09;5226143;28;20158;-77
2022/11/29 01:08:04;;;;;;;0.03;0.00;;;;;;;5.63;100.00;101266.50;5229436;28;20349;-76
2022/11/29 01:10:35;;;;;;;0.00;0.00;;;;;;;5.62;100.00;101267.47;5226102;28;20043;-77
2022/11/29 01:13:07;;;;;;;0.85;0.10;;;;;;;5.62;100.00;101262.16;5228344;28;20029;-77
2022/11/29 01:15:39;;;;;;;0.03;0.00;;;;;;;5.59;100.00;101264.94;5223194;28;20056;-76
2022/11/29 01:18:10;;;;;;;0.40;0.03;;;;;;;5.58;100.00;101267.66;5226715;28;20068;-76
2022/11/29 01:20:41;;;;;;;0.32;0.00;;;;;;;5.58;100.00;101273.84;5224213;28;20625;-77
2022/11/29 01:23:13;;;;;;;0.25;0.00;;;;;;;5.57;100.00;101269.47;5225126;28;20035;-76
2022/11/29 01:25:44;;;;;;;0.20;0.00;;;;;;;5.57;100.00;101279.19;5227184;28;20475;-77
2022/11/29 01:28:15;;;;;;;0.00;0.00;;;;;;;5.56;100.00;101273.06;5226320;28;20471;-77
2022/11/29 01:30:46;;;;;;;0.08;0.00;;;;;;;5.56;100.00;101274.81;5225139;28;20533;-77
2022/11/29 01:33:18;;;;;;;0.30;0.00;;;;;;;5.56;100.00;101280.13;5224606;28;20095;-77
2022/11/29 01:35:52;;;;;;;0.20;0.05;;;;;;;5.57;100.00;101292.44;5224333;28;20483;-77
2022/11/29 01:38:24;;;;;;;0.00;0.00;;;;;;;5.59;100.00;101279.97;5227256;28;20142;-76
2022/11/29 01:40:58;;;;;;;0.00;0.00;;;;;;;5.59;100.00;101291.41;5226327;28;20037;-76
2022/11/29 01:43:30;;;;;;;0.00;0.00;;;;;;;5.60;100.00;101290.50;5224528;28;20037;-76
2022/11/29 01:46:01;;;;;;;0.20;0.00;;;;;;;5.62;100.00;101288.63;5226981;28;20025;-76
2022/11/29 01:48:32;;;;;;;0.08;0.00;;;;;;;5.61;100.00;101294.84;5226676;28;20447;-76
2022/11/29 01:51:04;;;;;;;0.52;0.10;;;;;;;5.62;100.00;101299.22;5226408;28;20037;-77
2022/11/29 01:53:35;;;;;;;0.00;0.00;;;;;;;5.64;100.00;101301.81;5224637;28;20127;-76
2022/11/29 01:56:07;;;;;;;0.68;0.10;;;;;;;5.63;100.00;101311.50;5224426;28;20025;-76
2022/11/29 01:58:38;;;;;;;0.47;0.10;;;;;;;5.64;100.00;101307.09;5227444;28;20507;-77
2022/11/29 02:01:09;;;;;;;0.15;0.00;;;;;;;5.65;100.00;101314.09;5227625;28;20124;-76
2022/11/29 02:03:41;;;;;;;0.10;0.00;;;;;;;5.63;100.00;101314.16;5222542;28;20037;-76
2022/11/29 02:06:14;;;;;;;0.00;0.00;;;;;;;5.65;100.00;101324.69;5226111;28;20033;-76
2022/11/29 02:08:46;;;;;;;0.30;0.00;;;;;;;5.63;100.00;101322.09;5221540;28;20025;-76
2022/11/29 02:11:17;;;;;;;0.28;0.03;;;;;;;5.63;100.00;101332.69;5223192;28;20383;-76
2022/11/29 02:14:04;;;;;;;0.17;0.00;;;;;;;5.60;100.00;101330.22;5224858;28;20683;-77
2022/11/29 02:17:07;;;;;;;0.30;0.00;;;;;;;5.57;100.00;101335.63;5228885;28;20040;-77
2022/11/29 02:20:04;;;;;;;0.10;0.00;;;;;;;5.55;100.00;101332.22;5224143;28;20033;-76
2022/11/29 02:23:16;;;;;;;0.20;0.00;;;;;;;5.55;100.00;101334.00;5225532;28;20029;-77
2022/11/29 02:26:09;;;;;;;0.28;0.00;;;;;;;5.54;100.00;101334.91;5224327;28;20053;-76
2022/11/29 02:29:02;;;;;;;0.25;0.00;;;;;;;5.54;100.00;101333.13;5224624;28;20196;-77
2022/11/29 02:31:57;;;;;;;0.20;0.00;;;;;;;5.54;100.00;101337.56;5224431;28;20467;-76
2022/11/29 02:34:40;;;;;;;0.40;0.08;;;;;;;5.49;100.00;101324.56;5225240;28;20025;-76
2022/11/29 02:37:32;;;;;;;0.17;0.08;;;;;;;5.52;100.00;101327.03;5226079;28;20068;-76
2022/11/29 02:40:26;;;;;;;0.00;0.00;;;;;;;5.52;100.00;101332.34;5227684;28;20264;-76
2022/11/29 02:43:07;;;;;;;0.40;0.10;;;;;;;5.55;100.00;101329.56;5228720;28;20031;-76
2022/11/29 02:45:56;;;;;;;0.00;0.00;;;;;;;5.56;100.00;101328.66;5227521;28;20037;-76
2022/11/29 02:48:57;;;;;;;0.20;0.00;;;;;;;5.57;100.00;101330.34;5228037;28;20404;-76
2022/11/29 02:51:53;;;;;;;0.10;0.00;;;;;;;5.58;100.00;101337.38;5227866;28;20087;-76
2022/11/29 02:54:54;;;;;;;0.10;0.00;;;;;;;5.55;100.00;101334.84;5229120;28;20467;-76
2022/11/29 02:57:41;;;;;;;0.13;0.00;;;;;;;5.53;100.00;101341.16;5224126;28;20045;-76
2022/11/29 03:00:18;;;;;;;0.10;0.00;;;;;;;5.51;100.00;101335.94;5227980;28;20037;-76
2022/11/29 03:03:07;;;;;;;0.40;0.00;;;;;;;5.49;100.00;101345.75;5228253;28;20037;-76
2022/11/29 03:05:59;;;;;;;0.00;0.00;;;;;;;5.48;100.00;101350.19;5229152;28;20368;-76
2022/11/29 03:08:43;;;;;;;0.10;0.00;;;;;;;5.47;100.00;101351.09;5222239;28;20376;-76
2022/11/29 03:11:28;;;;;;;0.50;0.10;;;;;;;5.48;100.00;101351.94;5228126;28;20043;-77
2022/11/29 03:14:13;;;;;;;0.38;0.00;;;;;;;5.48;100.00;101363.41;5227477;28;20080;-76
2022/11/29 03:17:23;;;;;;;0.52;0.17;;;;;;;5.51;100.00;101357.09;5228074;28;20068;-76
2022/11/29 03:20:25;;;;;;;0.20;0.00;;;;;;;5.50;100.00;101358.91;5228051;28;20387;-76
2022/11/29 03:23:27;;;;;;;0.30;0.00;;;;;;;5.48;100.00;101359.88;5225795;28;20032;-76
2022/11/29 03:26:03;;;;;;;0.03;0.00;;;;;;;5.49;100.00;101361.63;5228062;28;20562;-77
2022/11/29 03:28:47;;;;;;;0.00;0.00;;;;;;;5.46;100.00;101369.69;5225909;28;20095;-76
2022/11/29 03:31:28;;;;;;;0.00;0.00;;;;;;;5.45;100.00;101368.84;5224041;28;20079;-76
2022/11/29 03:34:30;;;;;;;0.30;0.00;;;;;;;5.42;100.00;101376.91;5224406;28;20115;-76
2022/11/29 03:37:16;;;;;;;0.10;0.00;;;;;;;5.41;100.00;101377.00;5222569;28;20038;-76
2022/11/29 03:39:57;;;;;;;0.03;0.00;;;;;;;5.39;100.00;101379.72;5222350;28;20057;-76
2022/11/29 03:42:59;;;;;;;0.13;0.00;;;;;;;5.36;100.00;101390.44;5230194;28;20029;-76
2022/11/29 03:45:41;;;;;;;0.00;0.00;;;;;;;5.33;100.00;101385.28;5227798;28;20053;-76
2022/11/29 03:48:42;;;;;;;0.00;0.00;;;;;;;5.32;100.00;101394.16;5257883;28;20033;-76
2022/11/29 03:52:02;;;;;;;0.05;0.00;;;;;;;5.29;100.00;101389.88;5223231;28;20402;-76
2022/11/29 03:55:02;;;;;;;0.00;0.00;;;;;;;5.21;100.00;101397.25;5242988;28;20061;-76
2022/11/29 03:57:53;;;;;;;0.22;0.00;;;;;;;5.16;100.00;101394.00;5243523;28;20029;-76
2022/11/29 04:00:34;;;;;;;0.17;0.00;;;;;;;5.16;100.00;101396.63;5225297;28;20084;-76
2022/11/29 04:03:08;;;;;;;0.03;0.00;;;;;;;5.14;100.00;101405.53;5227668;28;20029;-76
2022/11/29 04:06:24;;;;;;;0.13;0.00;;;;;;;5.14;100.00;101400.25;5222530;28;20045;-76
2022/11/29 04:09:21;;;;;;;0.05;0.00;;;;;;;5.16;100.00;101409.88;5227765;28;20057;-77
2022/11/29 04:12:11;;;;;;;0.03;0.00;;;;;;;5.15;100.00;101408.13;5224024;28;20055;-76
2022/11/29 04:15:08;;;;;;;1.13;0.00;;;;;;;5.11;100.00;101417.97;5243985;28;20040;-76
2022/11/29 04:17:48;;;;;;;0.15;0.00;;;;;;;5.11;100.00;101410.06;5220685;28;20104;-76
2022/11/29 04:20:25;;;;;;;0.10;0.00;;;;;;;5.07;100.00;101413.75;5235624;28;20483;-76
2022/11/29 04:23:26;;;;;;;0.70;0.00;;;;;;;5.05;100.00;101422.69;5223460;28;20041;-76
2022/11/29 04:26:32;;;;;;;0.10;0.00;;;;;;;4.94;100.00;101415.22;5218381;28;20025;-76
2022/11/29 04:29:20;;;;;;;0.00;0.00;;;;;;;4.89;100.00;101420.72;5213085;28;20029;-76
2022/11/29 04:32:13;;;;;;;0.00;0.00;;;;;;;4.84;100.00;101414.78;5216235;28;20022;-76
2022/11/29 04:35:02;;;;;;;0.00;0.00;;;;;;;4.83;100.00;101422.75;5220576;28;20110;-76
2022/11/29 04:38:00;;;;;;;0.00;0.00;;;;;;;4.83;100.00;101414.84;5220644;28;20474;-76
2022/11/29 04:40:49;;;;;;;0.20;0.00;;;;;;;4.82;100.00;101421.91;5220078;28;20037;-76
2022/11/29 04:43:59;;;;;;;0.15;0.00;;;;;;;4.79;100.00;101427.31;5220785;28;20025;-76
2022/11/29 04:46:55;;;;;;;0.25;0.00;;;;;;;4.76;100.00;101426.63;5222286;28;20277;-76
2022/11/29 04:49:48;;;;;;;0.00;0.00;;;;;;;4.70;100.00;101427.75;5221861;28;20102;-76
2022/11/29 04:52:30;;;;;;;0.10;0.00;;;;;;;4.72;100.00;101426.75;5225872;28;20059;-75
2022/11/29 04:55:39;;;;;;;0.15;0.00;;;;;;;4.72;100.00;101432.03;5226278;28;20097;-76
2022/11/29 04:58:32;;;;;;;0.30;0.00;;;;;;;4.66;100.00;101428.78;5222170;28;20045;-76
2022/11/29 05:01:22;;;;;;;0.10;0.00;;;;;;;4.64;100.00;101427.97;5223233;28;20029;-76
2022/11/29 05:04:07;;;;;;;0.00;0.00;;;;;;;4.62;100.00;101430.72;5222981;28;20057;-76
2022/11/29 05:07:00;;;;;;;0.00;0.00;;;;;;;4.63;100.00;101442.13;5223911;28;20071;-76
2022/11/29 05:09:37;;;;;;;0.10;0.00;;;;;;;4.67;100.00;101449.00;5223286;28;21598;-75
2022/11/29 05:12:24;;;;;;;0.00;0.00;;;;;;;4.69;100.00;101455.09;5226367;28;20476;-76
2022/11/29 05:15:20;;;;;;;0.30;0.00;;;;;;;4.69;100.00;101453.28;5225346;28;20041;-76
2022/11/29 05:18:20;;;;;;;0.28;0.10;;;;;;;4.73;100.00;101459.31;5223784;28;20033;-76
2022/11/29 05:21:02;;;;;;;0.45;0.00;;;;;;;4.74;100.00;101463.69;5223274;28;20036;-76
2022/11/29 05:24:01;;;;;;;2.08;0.00;;;;;;;4.71;100.00;101461.16;5223906;28;20150;-76
2022/11/29 05:26:36;;;;;;;0.35;0.05;;;;;;;4.69;100.00;101473.59;5223972;28;20124;-76
2022/11/29 05:29:15;;;;;;;0.10;0.00;;;;;;;4.69;100.00;101484.16;5222647;28;20387;-76
2022/11/29 05:32:16;;;;;;;0.05;0.00;;;;;;;4.61;100.00;101476.53;5225327;28;20029;-76
2022/11/29 05:35:06;;;;;;;0.28;0.28;;;;;;;4.60;100.00;101482.78;5222016;28;20861;-76
2022/11/29 05:37:55;;;;;;;0.55;0.10;;;;;;;4.62;100.00;101488.84;5222127;28;20364;-76
2022/11/29 05:40:48;;;;;;;0.15;0.00;;;;;;;4.57;100.00;101489.97;5220104;28;20033;-76
2022/11/29 05:43:55;;;;;;;0.00;0.00;;;;;;;4.54;100.00;101490.06;5222177;28;20415;-76
2022/11/29 05:46:52;;;;;;;0.20;0.00;;;;;;;4.50;100.00;101494.63;5228470;28;20064;-76
2022/11/29 05:49:39;;;;;;;0.08;0.00;;;;;;;4.51;100.00;101499.00;5218185;28;20028;-76
2022/11/29 05:52:26;;;;;;;0.10;0.00;;;;;;;4.55;100.00;101497.09;5222623;28;20396;-76
2022/11/29 05:55:16;;;;;;;0.00;0.00;;;;;;;4.55;100.00;101502.38;5227973;28;20058;-76
2022/11/29 05:58:02;;;;;;;0.25;0.00;;;;;;;4.56;100.00;101506.72;5223087;28;20029;-76
2022/11/29 06:00:48;;;;;;;0.15;0.00;;;;;;;4.54;100.00;101519.16;5222617;28;20037;-76
2022/11/29 06:03:33;;;;;;;0.10;0.00;;;;;;;4.50;100.00;101511.34;5223387;28;20045;-76
2022/11/29 06:06:11;;;;;;;;;;;;;;;4.49;100.00;101509.63;5221485;28;20029;-76
2022/11/29 06:08:54;;;;;;;0.13;0.00;;;;;;;4.51;100.00;101515.72;5221752;28;19913;-76
2022/11/29 06:11:31;;;;;;;0.00;0.00;;;;;;;4.54;100.00;101521.78;5224546;28;20108;-77
2022/11/29 06:14:33;;;;;;;0.00;0.00;;;;;;;4.51;100.00;101534.22;5223067;28;20037;-77
2022/11/29 06:17:32;;;;;;;0.10;0.00;;;;;;;4.52;100.00;101529.78;5224836;28;20468;-77
2022/11/29 06:20:37;;;;;;;0.08;0.00;;;;;;;4.56;100.00;101544.56;5225848;28;20126;-76
2022/11/29 06:23:27;;;;;;;;;;;;;;;4.56;100.00;101549.88;5225644;28;20507;-77
2022/11/29 06:26:02;;;;;;;0.00;0.00;;;;;;;4.58;100.00;101544.53;5224877;28;19996;-77
2022/11/29 06:28:46;;;;;;;0.00;0.00;;;;;;;4.58;100.00;101549.81;5229719;28;20083;-75
2022/11/29 06:31:24;;;;;;;;;;;;;;;4.60;100.00;101547.97;5258448;28;20071;-76
2022/11/29 06:34:11;;;;;;;0.00;0.00;;;;;;;4.62;100.00;101554.03;5228068;28;19928;-76
2022/11/29 06:37:04;;;;;;;0.10;0.00;;;;;;;4.67;100.00;101563.50;5224820;28;20036;-77
2022/11/29 06:39:35;;;;;;;0.00;0.00;;;;;;;4.72;100.00;101561.56;5224576;28;20502;-77
2022/11/29 06:42:07;;;;;;;0.17;0.00;;;;;;;4.74;100.00;101560.63;5221041;28;20034;-76
2022/11/29 06:44:38;;;;;;;0.10;0.00;;;;;;;4.71;100.00;101567.75;5215704;28;20198;-76
2022/11/29 06:47:23;;;;;;;0.13;0.00;;;;;;;4.70;100.00;101570.47;5221711;28;20060;-76
2022/11/29 06:50:13;;;;;;;0.00;0.00;;;;;;;4.71;100.00;101574.81;5224572;28;20358;-76
2022/11/29 06:53:07;;;;;;;0.00;0.00;;;;;;;4.72;100.00;101584.50;5225151;28;20087;-77
2022/11/29 06:56:14;;;;;;;0.10;0.00;;;;;;;4.74;100.00;101587.94;5223105;28;20033;-77
2022/11/29 06:59:04;;;;;;;0.25;0.00;;;;;;;4.75;100.00;101596.72;5224897;28;20033;-77
2022/11/29 07:01:47;;;;;;;0.45;0.00;;;;;;;4.78;100.00;101588.69;5223170;28;20044;-76
2022/11/29 07:04:30;;;;;;;0.10;0.00;;;;;;;4.80;100.00;101594.75;5219888;28;20032;-77
2022/11/29 07:07:02;;;;;;;0.35;0.10;;;;;;;4.80;100.00;101579.75;5223906;28;20372;-76
2022/11/29 07:09:34;;;;;;;0.20;0.00;;;;;;;4.85;100.00;101584.84;5223540;28;20069;-76
2022/11/29 07:12:06;;;;;;;0.00;0.00;;;;;;;4.88;100.00;101593.50;5223592;28;20029;-76
2022/11/29 07:14:37;;;;;;;0.03;0.00;;;;;;;4.93;100.00;101592.47;5220546;28;20032;-77
2022/11/29 07:17:33;;;;;;;0.10;0.00;;;;;;;4.93;100.00;101597.75;5224976;28;20033;-76
2022/11/29 07:20:26;;;;;;;0.05;0.00;;;;;;;4.93;100.00;101603.03;5224355;28;20025;-77
2022/11/29 07:23:22;;;;;;;0.10;0.00;;;;;;;4.94;100.00;101605.63;5223188;28;20034;-77
2022/11/29 07:26:34;;;;;;;0.45;0.05;;;;;;;4.96;100.00;101616.13;5226612;28;20640;-77
2022/11/29 07:29:15;;;;;;;0.13;0.00;;;;;;;4.95;100.00;101617.94;5224000;28;20144;-76
2022/11/29 07:32:06;;;;;;;0.00;0.00;;;;;;;4.95;100.00;101628.50;5221090;28;20444;-77
2022/11/29 07:34:55;;;;;;;0.00;0.00;;;;;;;4.95;100.00;101623.22;5227532;28;20084;-76
2022/11/29 07:37:29;;;;;;;0.00;0.00;;;;;;;4.94;100.00;101621.50;5230094;28;20044;-77
2022/11/29 07:40:15;;;;;;;0.00;0.00;;;;;;;4.93;100.00;101632.13;5228388;28;20036;-77
2022/11/29 07:43:05;;;;;;;0.20;0.03;;;;;;;4.92;100.00;101636.56;5230085;28;20045;-77
2022/11/29 07:45:38;;;;;;;0.00;0.00;;;;;;;4.96;100.00;101647.88;5226059;28;20399;-77
2022/11/29 07:48:11;;;;;;;0.40;0.00;;;;;;;4.97;100.00;101652.25;5228327;28;20033;-77
2022/11/29 07:50:43;;;;;;;0.10;0.00;;;;;;;5.01;100.00;101643.28;5225055;28;20472;-77
2022/11/29 07:53:16;;;;;;;0.00;0.00;;;;;;;5.02;100.00;101650.28;5222830;28;20029;-76
2022/11/29 07:55:48;;;;;;;0.00;0.00;;;;;;;5.04;100.00;101640.47;5227138;28;20423;-76
2022/11/29 07:58:20;;;;;;;0.00;0.00;;;;;;;5.05;100.00;101636.94;5224779;28;20068;-76
2022/11/29 08:00:51;;;;;;;0.05;0.00;;;;;;;5.06;100.00;101638.63;5228445;28;20480;-77
2022/11/29 08:03:22;;;;;;;0.10;0.00;;;;;;;5.06;100.00;101642.16;5230591;28;20026;-77
2022/11/29 08:05:54;;;;;;;0.10;0.00;;;;;;;5.08;100.00;101647.38;5224731;28;20080;-77
2022/11/29 08:08:25;;;;;;;0.00;0.00;;;;;;;5.09;100.00;101649.97;5224692;28;20368;-77
2022/11/29 08:10:56;;;;;;;0.03;0.00;;;;;;;5.11;100.00;101645.47;5224619;28;20029;-76
2022/11/29 08:13:28;;;;;;;0.08;0.00;;;;;;;5.14;100.00;101644.50;5224382;28;20037;-76
2022/11/29 08:15:59;;;;;;;0.00;0.00;;;;;;;5.18;100.00;101647.84;5223514;28;20124;-76
2022/11/29 08:18:30;;;;;;;0.20;0.03;;;;;;;5.17;100.00;101641.72;5222220;28;20025;-76
2022/11/29 08:21:06;;;;;;;0.08;0.00;;;;;;;5.18;100.00;101659.31;5225257;28;20029;-77
2022/11/29 08:23:37;;;;;;;0.00;0.00;;;;;;;5.20;100.00;101659.25;5222997;28;20029;-77
2022/11/29 08:26:09;;;;;;;0.00;0.00;;;;;;;5.19;100.00;101665.47;5225721;28;20025;-77
2022/11/29 08:28:40;;;;;;;0.00;0.00;;;;;;;5.19;100.00;101655.72;5227812;28;20041;-77
2022/11/29 08:31:12;;;;;;;0.10;0.00;;;;;;;5.18;100.00;101664.59;5228305;28;20499;-77
2022/11/29 08:33:44;;;;;;;0.00;0.00;;;;;;;5.23;100.00;101664.41;5227183;28;20025;-77
2022/11/29 08:36:18;;;;;;;0.00;0.00;;;;;;;5.25;100.00;101668.72;5227108;28;20056;-77
2022/11/29 08:38:49;;;;;;;0.00;0.00;;;;;;;5.29;100.00;101662.38;5225094;28;20721;-77
2022/11/29 08:41:20;;;;;;;0.00;0.00;;;;;;;5.31;100.00;101657.00;5227089;28;20029;-75
2022/11/29 08:43:52;;;;;;;0.00;0.00;;;;;;;5.33;100.00;101663.13;5228346;28;20083;-75
2022/11/29 08:47:34;;;;;;;0.00;0.00;;;;;;;5.36;100.00;101664.78;5225905;28;20475;-76
2022/11/29 08:49:14;;;;;;;0.10;0.00;;;;;;;5.37;100.00;101667.38;5226975;28;20072;-76
2022/11/29 08:51:46;;;;;;;0.10;0.00;;;;;;;5.41;100.00;101668.94;5223404;28;21485;-77
2022/11/29 08:54:17;;;;;;;0.00;0.00;;;;;;;5.45;100.00;101674.97;5234079;28;20096;-78
2022/11/29 08:56:48;;;;;;;0.20;0.00;;;;;;;5.49;100.00;101679.22;5231822;28;20029;-76
2022/11/29 08:59:20;;;;;;;0.00;0.00;;;;;;;5.54;100.00;101681.66;5235196;28;20025;-76
2022/11/29 09:01:51;;;;;;;0.00;0.00;;;;;;;5.53;100.00;101675.50;5232594;28;20249;-76
2022/11/29 09:04:22;;;;;;;0.00;0.00;;;;;;;5.52;100.00;101686.16;5236538;28;20030;-76
2022/11/29 09:06:53;;;;;;;0.00;0.00;;;;;;;5.52;100.00;101678.22;5230757;28;20057;-76
2022/11/29 09:09:25;;;;;;;0.10;0.00;;;;;;;5.51;100.00;101680.00;5230352;28;20037;-76
2022/11/29 09:11:56;;;;;;;0.00;0.00;;;;;;;5.54;100.00;101689.59;5229855;28;20705;-76
2022/11/29 09:14:27;;;;;;;0.00;0.00;;;;;;;5.56;100.00;101691.28;5231450;28;20041;-77
2022/11/29 09:17:00;;;;;;;0.00;0.00;;;;;;;5.57;100.00;101703.56;5234111;28;20032;-76
2022/11/29 09:19:32;;;;;;;0.00;0.00;;;;;;;5.58;100.00;101693.84;5241925;28;20043;-77
2022/11/29 09:22:03;;;;;;;0.00;0.00;;;;;;;5.58;100.00;101694.72;5235683;28;20029;-76
2022/11/29 09:24:34;;;;;;;0.10;0.00;;;;;;;5.60;100.00;101698.16;5233039;28;20412;-76
2022/11/29 09:27:05;;;;;;;0.10;0.00;;;;;;;5.60;100.00;101700.81;5234246;28;21688;-76
2022/11/29 09:29:37;;;;;;;0.00;0.00;;;;;;;5.61;100.00;101713.09;5233777;28;20060;-78
2022/11/29 09:32:08;;;;;;;0.30;0.10;;;;;;;5.60;100.00;101706.09;5240017;28;20025;-77
2022/11/29 09:34:40;;;;;;;0.00;0.00;;;;;;;5.61;100.00;101709.59;5236410;28;20037;-76
2022/11/29 09:37:12;;;;;;;0.20;0.00;;;;;;;5.64;100.00;101715.63;5238217;28;20112;-76
2022/11/29 09:39:43;;;;;;;0.00;0.00;;;;;;;5.68;100.00;101721.66;5234276;28;20051;-77
2022/11/29 09:42:23;;;;;;;0.70;0.00;;;;;;;5.68;100.00;101729.59;5227911;28;20091;-76
2022/11/29 09:45:03;;;;;;;0.00;0.00;;;;;;;5.70;100.00;101736.56;5236706;28;20467;-76
2022/11/29 09:47:56;;;;;;;0.00;0.00;;;;;;;5.75;100.00;101739.00;5238419;28;20115;-77
2022/11/29 09:50:41;;;;;;;0.00;0.00;;;;;;;5.82;100.00;101735.16;5234639;28;20041;-75
2022/11/29 09:53:19;;;;;;;0.10;0.00;;;;;;;5.86;100.00;101734.13;5232992;28;20041;-75
2022/11/29 09:56:16;;;;;;;0.00;0.00;;;;;;;5.86;100.00;101742.06;5242588;28;20499;-76
2022/11/29 09:58:54;;;;;;;0.00;0.00;;;;;;;5.86;100.00;101742.06;5236458;28;20431;-76
2022/11/29 10:01:30;;;;;;;0.00;0.00;;;;;;;5.87;100.00;101743.78;5232876;28;20053;-74
2022/11/29 10:04:07;;;;;;;0.10;0.00;;;;;;;5.87;100.00;101745.59;5234763;28;20033;-76
2022/11/29 10:06:55;;;;;;;0.00;0.00;;;;;;;5.89;100.00;101743.72;5232581;28;20483;-77
2022/11/29 10:09:32;;;;;;;0.08;0.00;;;;;;;5.96;100.00;101744.34;5229974;28;20061;-76
2022/11/29 10:12:26;;;;;;;0.10;0.00;;;;;;;6.00;100.00;101748.59;5229102;28;20120;-76
2022/11/29 10:15:04;;;;;;;0.00;0.00;;;;;;;6.00;100.00;101741.53;5232901;28;20116;-76
2022/11/29 10:18:01;;;;;;;0.00;0.00;;;;;;;5.99;100.00;101746.88;5231758;28;20025;-76
2022/11/29 10:20:37;;;;;;;0.40;0.00;;;;;;;6.02;100.00;101749.38;5226167;28;20025;-76
2022/11/29 10:23:21;;;;;;;0.10;0.00;;;;;;;6.05;100.00;101743.97;5231014;28;20557;-77
2022/11/29 10:25:55;;;;;;;0.00;0.00;;;;;;;6.08;100.00;101743.84;5233277;28;20049;-76
2022/11/29 10:28:31;;;;;;;0.00;0.00;;;;;;;6.08;100.00;101743.84;5237991;28;20095;-77
2022/11/29 10:31:18;;;;;;;0.00;0.00;;;;;;;6.09;100.00;101734.94;5232325;28;20057;-76
2022/11/29 10:33:50;;;;;;;0.00;0.00;;;;;;;6.13;100.00;101735.69;5232988;28;20026;-77
2022/11/29 10:36:33;;;;;;;0.22;0.00;;;;;;;6.12;100.00;101739.25;5232970;28;20102;-77
2022/11/29 10:39:29;;;;;;;0.00;0.00;;;;;;;6.15;100.00;101736.47;5227547;28;20025;-77
2022/11/29 10:42:02;;;;;;;0.22;0.00;;;;;;;6.15;100.00;101737.31;5228372;28;20026;-77
2022/11/29 10:44:33;;;;;;;0.10;0.00;;;;;;;6.14;100.00;101727.66;5227405;28;20030;-77
2022/11/29 10:47:04;;;;;;;0.52;0.00;;;;;;;6.13;100.00;101741.84;5223129;28;20029;-77
2022/11/29 10:49:36;;;;;;;0.00;0.00;;;;;;;6.11;100.00;101734.88;5231039;28;20044;-78
2022/11/29 10:52:18;;;;;;;0.10;0.00;;;;;;;6.07;100.00;101748.25;5235739;28;20030;-78
2022/11/29 10:54:55;;;;;;;0.00;0.00;;;;;;;6.04;100.00;101740.47;5232935;28;20118;-77
2022/11/29 10:57:26;;;;;;;0.30;0.10;;;;;;;6.06;100.00;101745.69;5238997;28;20834;-77
2022/11/29 11:00:05;;;;;;;0.80;0.00;;;;;;;6.02;100.00;101744.09;5226064;28;20172;-77
2022/11/29 11:02:37;;;;;;;0.00;0.00;;;;;;;6.04;100.00;101745.75;5224151;28;20064;-77
2022/11/29 11:05:18;;;;;;;0.05;0.00;;;;;;;6.00;100.00;101746.81;5231835;28;20125;-78
2022/11/29 11:07:56;;;;;;;0.10;0.00;;;;;;;6.01;100.00;101750.31;5229148;28;20033;-77
2022/11/29 11:10:29;;;;;;;0.22;0.10;;;;;;;6.00;100.00;101748.59;5232454;28;20068;-77
2022/11/29 11:13:17;;;;;;;0.47;0.00;;;;;;;5.98;100.00;101746.00;5228492;28;20048;-77
2022/11/29 11:16:07;;;;;;;0.00;0.00;;;;;;;5.97;100.00;101743.44;5230258;28;20467;-78
2022/11/29 11:18:38;;;;;;;0.20;0.00;;;;;;;5.97;100.00;101738.16;5233886;28;20025;-77
2022/11/29 11:21:12;;;;;;;0.28;0.00;;;;;;;5.97;100.00;101741.66;5232923;28;20035;-77
2022/11/29 11:23:47;;;;;;;0.20;0.10;;;;;;;5.99;100.00;101745.09;5232607;28;20025;-77
2022/11/29 11:26:19;;;;;;;0.60;0.05;;;;;;;6.02;100.00;101746.72;5233856;28;20067;-77
2022/11/29 11:28:57;;;;;;;0.10;0.00;;;;;;;6.05;100.00;101746.63;5230721;28;20033;-77
2022/11/29 11:31:36;;;;;;;0.03;0.00;;;;;;;6.11;100.00;101756.09;5230444;28;20029;-77
2022/11/29 11:34:30;;;;;;;0.10;0.05;;;;;;;6.13;100.00;101755.09;5228990;28;20453;-77
2022/11/29 11:37:14;;;;;;;0.90;0.10;;;;;;;6.17;100.00;101759.31;5228713;28;20041;-77
2022/11/29 11:39:48;;;;;;;0.20;0.00;;;;;;;6.21;100.00;101755.63;5233937;28;20029;-77
2022/11/29 11:42:35;;;;;;;0.08;0.00;;;;;;;6.25;100.00;101758.97;5232093;28;20426;-77
2022/11/29 11:45:09;;;;;;;0.10;0.00;;;;;;;6.26;100.00;101766.03;5229044;28;20231;-77
2022/11/29 11:47:44;;;;;;;0.15;0.00;;;;;;;6.25;100.00;101762.53;5230868;28;20033;-77
2022/11/29 11:50:26;;;;;;;0.10;0.00;;;;;;;6.25;100.00;101765.16;5224804;28;20112;-78
2022/11/29 11:53:04;;;;;;;0.00;0.00;;;;;;;6.26;100.00;101768.66;5225880;28;20018;-78
2022/11/29 11:55:41;;;;;;;0.00;0.00;;;;;;;6.27;100.00;101770.38;5228051;28;20046;-77
2022/11/29 11:58:12;;;;;;;0.40;0.00;;;;;;;6.30;100.00;101770.25;5226824;28;20032;-77
2022/11/29 12:00:48;;;;;;;0.00;0.00;;;;;;;6.35;100.00;101772.69;5234451;28;20041;-78
2022/11/29 12:03:25;;;;;;;0.08;0.00;;;;;;;6.34;100.00;101771.84;5232632;28;20484;-78
2022/11/29 12:06:09;;;;;;;0.08;0.03;;;;;;;6.32;100.00;101784.28;5235379;28;20029;-78
2022/11/29 12:08:41;;;;;;;0.10;0.00;;;;;;;6.31;100.00;101779.94;5233746;28;20116;-78
2022/11/29 12:11:16;;;;;;;0.43;0.00;;;;;;;6.34;100.00;101797.50;5233919;28;20025;-78
2022/11/29 12:13:53;;;;;;;0.85;0.00;;;;;;;6.36;100.00;101785.88;5234351;28;20021;-78
2022/11/29 12:16:32;;;;;;;0.10;0.00;;;;;;;6.37;100.00;101792.91;5234451;28;20429;-78
2022/11/29 12:19:15;;;;;;;0.10;0.00;;;;;;;6.42;100.00;101795.34;5233739;28;20026;-78
2022/11/29 12:21:51;;;;;;;0.00;0.00;;;;;;;6.48;100.00;101795.06;5228681;28;20026;-78
2022/11/29 12:24:37;;;;;;;0.20;0.00;;;;;;;6.52;100.00;101794.03;5232946;28;20502;-78
2022/11/29 12:27:13;;;;;;;0.00;0.00;;;;;;;6.57;100.00;101799.97;5236876;28;20387;-78
2022/11/29 12:29:44;;;;;;;0.05;0.00;;;;;;;6.56;100.00;101792.97;5235615;28;20129;-78
2022/11/29 12:32:41;;;;;;;0.00;0.00;;;;;;;6.58;100.00;101809.69;5259045;28;20026;-78